createdAt,value
2018-10-07T00:02:12.433Z,37.30
2018-10-07T00:04:48.045Z,38.08
2018-10-07T00:07:23.601Z,44.00
2018-10-07T00:09:59.044Z,41.73
2018-10-07T00:12:34.540Z,39.20
2018-10-07T00:15:10.238Z,42.62
2018-10-07T00:17:45.673Z,42.43
2018-10-07T00:20:21.505Z,41.77
2018-10-07T00:22:56.996Z,43.13
2018-10-07T00:25:32.544Z,46.92
2018-10-07T00:28:08.030Z,43.65
2018-10-07T00:30:43.584Z,48.55
2018-10-07T00:33:18.961Z,44.20
2018-10-07T00:35:54.440Z,44.45
2018-10-07T00:38:29.845Z,40.45
2018-10-07T00:41:05.354Z,45.10
2018-10-07T00:43:40.869Z,46.48
2018-10-07T00:46:16.304Z,38.50
2018-10-07T00:48:51.764Z,37.50
2018-10-07T00:51:27.305Z,39.85
2018-10-07T00:54:02.727Z,32.88
2018-10-07T00:56:38.219Z,27.40
2018-10-07T00:59:13.627Z,25.20
2018-10-07T01:01:49.203Z,23.02
2018-10-07T01:04:24.509Z,20.37
2018-10-07T01:06:59.893Z,17.90
2018-10-07T01:09:35.412Z,19.07
2018-10-07T01:12:11.037Z,15.80
2018-10-07T01:14:46.692Z,14.05
2018-10-07T01:17:22.148Z,12.55
2018-10-07T01:19:57.557Z,11.25
2018-10-07T01:22:33.037Z,9.38
2018-10-07T01:25:08.371Z,9.10
2018-10-07T01:27:44.021Z,11.10
2018-10-07T01:30:22.391Z,9.20
2018-10-07T01:32:57.896Z,10.70
2018-10-07T01:35:33.493Z,9.35
2018-10-07T01:38:08.909Z,12.68
2018-10-07T01:40:44.470Z,7.78
2018-10-07T01:43:19.977Z,10.58
2018-10-07T01:45:55.481Z,7.28
2018-10-07T01:48:31.033Z,6.50
2018-10-07T01:51:06.574Z,7.12
2018-10-07T01:53:42.127Z,5.15
2018-10-07T01:56:17.499Z,4.08
2018-10-07T01:58:53.514Z,3.58
2018-10-07T02:01:28.910Z,4.50
2018-10-07T02:04:04.400Z,3.10
2018-10-07T02:06:39.901Z,2.40
2018-10-07T02:09:15.292Z,3.58
2018-10-07T02:11:50.706Z,3.00
2018-10-07T02:14:26.253Z,2.05
2018-10-07T02:17:01.566Z,3.35
2018-10-07T02:19:37.103Z,2.70
2018-10-07T02:22:12.506Z,1.98
2018-10-07T02:24:48.105Z,2.05
2018-10-07T02:27:23.593Z,1.80
2018-10-07T02:29:59.056Z,1.80
2018-10-07T02:32:34.432Z,1.30
2018-10-07T02:35:09.963Z,1.70
2018-10-07T02:37:45.288Z,1.75
2018-10-07T02:40:20.902Z,1.30
2018-10-07T02:42:56.283Z,1.62
2018-10-07T02:45:31.825Z,1.22
2018-10-07T02:48:07.210Z,1.40
2018-10-07T02:50:42.610Z,2.00
2018-10-07T02:53:18.133Z,1.57
2018-10-07T02:55:53.643Z,2.30
2018-10-07T02:58:29.840Z,1.60
2018-10-07T03:01:05.315Z,1.80
2018-10-07T03:03:40.860Z,1.62
2018-10-07T03:06:16.469Z,1.40
2018-10-07T03:08:51.767Z,1.70
2018-10-07T03:11:27.350Z,1.55
2018-10-07T03:14:02.959Z,1.40
2018-10-07T03:16:38.642Z,1.45
2018-10-07T03:19:13.988Z,1.30
2018-10-07T03:21:49.394Z,1.25
2018-10-07T03:24:24.976Z,1.40
2018-10-07T03:27:00.581Z,1.62
2018-10-07T03:29:36.121Z,1.50
2018-10-07T03:32:11.670Z,1.93
2018-10-07T03:34:47.013Z,2.00
2018-10-07T03:37:22.557Z,1.62
2018-10-07T03:39:57.926Z,1.85
2018-10-07T03:42:33.436Z,1.60
2018-10-07T03:45:08.784Z,1.95
2018-10-07T03:47:44.319Z,1.80
2018-10-07T03:50:19.818Z,1.32
2018-10-07T03:52:55.279Z,1.85
2018-10-07T03:55:30.605Z,1.85
2018-10-07T03:58:06.213Z,1.90
2018-10-07T04:00:41.517Z,1.60
2018-10-07T04:03:17.051Z,1.98
2018-10-07T04:05:52.730Z,1.80
2018-10-07T04:08:28.340Z,1.90
2018-10-07T04:11:03.838Z,1.60
2018-10-07T04:13:39.457Z,1.60
2018-10-07T04:16:15.138Z,1.90
2018-10-07T04:18:50.904Z,2.35
2018-10-07T04:21:26.473Z,2.00
2018-10-07T04:24:02.010Z,1.80
2018-10-07T04:26:37.433Z,1.80
2018-10-07T04:29:12.948Z,1.93
2018-10-07T04:31:48.686Z,1.90
2018-10-07T04:34:24.122Z,2.20
2018-10-07T04:36:59.633Z,2.00
2018-10-07T04:39:35.146Z,1.92
2018-10-07T04:42:10.742Z,1.70
2018-10-07T04:44:46.348Z,1.62
2018-10-07T04:47:22.737Z,1.85
2018-10-07T04:49:58.307Z,1.77
2018-10-07T04:52:33.585Z,1.98
2018-10-07T04:55:09.033Z,1.95
2018-10-07T04:57:44.841Z,1.90
2018-10-07T05:00:20.229Z,1.80
2018-10-07T05:02:55.796Z,1.80
2018-10-07T05:05:31.563Z,2.35
2018-10-07T05:08:07.417Z,1.90
2018-10-07T05:10:49.937Z,2.00
2018-10-07T05:13:29.132Z,2.20
2018-10-07T05:16:04.702Z,1.98
2018-10-07T05:18:40.204Z,1.90
2018-10-07T05:21:15.760Z,1.82
2018-10-07T05:23:51.133Z,1.47
2018-10-07T05:26:26.618Z,1.90
2018-10-07T05:29:02.055Z,1.98
2018-10-07T05:31:37.475Z,1.70
2018-10-07T05:34:12.833Z,1.75
2018-10-07T05:36:48.550Z,2.08
2018-10-07T05:39:23.877Z,1.70
2018-10-07T05:41:59.319Z,1.87
2018-10-07T05:44:34.906Z,2.20
2018-10-07T05:47:10.403Z,1.95
2018-10-07T05:49:45.862Z,2.25
2018-10-07T05:52:21.325Z,2.00
2018-10-07T05:54:56.717Z,2.05
2018-10-07T05:57:32.106Z,1.90
2018-10-07T06:00:09.545Z,1.85
2018-10-07T06:02:47.159Z,2.22
2018-10-07T06:05:22.467Z,2.35
2018-10-07T06:07:57.845Z,1.87
2018-10-07T06:10:33.223Z,1.87
2018-10-07T06:13:08.786Z,1.95
2018-10-07T06:15:44.601Z,1.50
2018-10-07T06:18:20.199Z,1.47
2018-10-07T06:20:55.460Z,1.70
2018-10-07T06:23:31.145Z,2.20
2018-10-07T06:26:06.514Z,1.40
2018-10-07T06:28:41.961Z,1.80
2018-10-07T06:31:17.173Z,1.72
2018-10-07T06:33:52.817Z,1.65
2018-10-07T07:20:21.558Z,1.40
2018-10-07T07:22:56.941Z,1.30
2018-10-07T07:25:32.639Z,1.20
2018-10-07T07:28:07.981Z,1.87
2018-10-07T07:30:43.493Z,1.30
2018-10-07T07:33:18.874Z,1.47
2018-10-07T07:35:54.565Z,1.47
2018-10-07T07:38:29.853Z,1.10
2018-10-07T07:41:05.348Z,1.55
2018-10-07T07:43:40.831Z,1.60
2018-10-07T07:46:16.316Z,1.25
2018-10-07T07:48:51.777Z,1.30
2018-10-07T07:51:27.464Z,1.40
2018-10-07T07:54:03.545Z,1.30
2018-10-07T07:56:39.149Z,1.10
2018-10-07T07:59:14.465Z,1.80
2018-10-07T08:01:50.149Z,1.20
2018-10-07T08:04:25.569Z,1.35
2018-10-07T08:07:01.295Z,1.40
2018-10-07T08:09:36.625Z,1.40
2018-10-07T08:12:12.181Z,1.70
2018-10-07T08:14:47.669Z,1.20
2018-10-07T08:17:23.293Z,1.70
2018-10-07T08:19:58.741Z,1.40
2018-10-07T08:22:34.353Z,1.80
2018-10-07T08:25:10.038Z,1.32
2018-10-07T08:27:45.557Z,1.50
2018-10-07T08:30:21.038Z,1.75
2018-10-07T08:32:56.610Z,1.70
2018-10-07T08:35:31.884Z,1.67
2018-10-07T08:38:07.215Z,1.40
2018-10-07T08:40:42.646Z,1.75
2018-10-07T08:43:18.408Z,1.65
2018-10-07T08:45:53.877Z,1.92
2018-10-07T08:48:29.321Z,4.75
2018-10-07T08:51:04.614Z,5.87
2018-10-07T08:53:40.373Z,1.57
2018-10-07T08:56:15.804Z,1.70
2018-10-07T08:58:51.257Z,2.15
2018-10-07T09:01:26.711Z,1.37
2018-10-07T09:04:02.132Z,2.20
2018-10-07T09:06:37.474Z,1.90
2018-10-07T09:09:13.267Z,2.02
2018-10-07T09:11:48.506Z,1.70
2018-10-07T09:14:24.569Z,1.87
2018-10-07T09:16:59.965Z,1.60
2018-10-07T09:19:35.603Z,1.77
2018-10-07T09:22:10.944Z,1.67
2018-10-07T09:24:46.489Z,2.02
2018-10-07T09:27:21.926Z,1.57
2018-10-07T09:29:57.446Z,1.92
2018-10-07T09:32:32.973Z,1.87
2018-10-07T09:35:09.340Z,1.90
2018-10-07T09:37:44.796Z,4.90
2018-10-07T09:40:20.268Z,1.90
2018-10-07T09:42:55.734Z,2.70
2018-10-07T09:45:31.157Z,1.90
2018-10-07T09:48:06.686Z,3.20
2018-10-07T09:50:42.139Z,1.60
2018-10-07T09:53:17.509Z,2.05
2018-10-07T09:55:53.277Z,2.72
2018-10-07T09:58:28.682Z,1.92
2018-10-07T10:01:04.189Z,1.90
2018-10-07T10:03:39.369Z,1.70
2018-10-07T10:06:14.845Z,1.90
2018-10-07T10:08:50.076Z,1.30
2018-10-07T10:11:25.495Z,1.40
2018-10-07T10:14:01.040Z,1.80
2018-10-07T10:16:44.138Z,1.40
2018-10-07T10:19:25.985Z,1.15
2018-10-07T10:22:15.298Z,1.50
2018-10-07T10:25:01.541Z,1.62
2018-10-07T10:27:49.905Z,1.60
2018-10-07T10:30:39.501Z,1.87
2018-10-07T10:33:23.545Z,1.30
2018-10-07T10:36:31.140Z,1.25
2018-10-07T10:39:28.199Z,1.50
2018-10-07T10:42:15.415Z,2.08
2018-10-07T10:44:54.673Z,1.80
2018-10-07T10:47:36.217Z,2.12
2018-10-07T10:50:48.045Z,2.75
2018-10-07T10:53:35.849Z,2.17
2018-10-07T10:56:26.578Z,2.58
2018-10-07T10:59:12.021Z,4.30
2018-10-07T11:04:04.584Z,1.90
2018-10-07T11:06:51.073Z,3.12
2018-10-07T11:10:39.232Z,1.72
2018-10-07T11:15:28.607Z,1.25
2018-10-07T11:19:24.970Z,2.02
2018-10-07T11:22:15.036Z,1.65
2018-10-07T11:27:09.413Z,1.50
2018-10-07T11:30:56.529Z,1.25
2018-10-07T11:34:16.041Z,2.00
2018-10-07T11:37:19.886Z,2.70
2018-10-07T11:41:07.969Z,2.15
2018-10-07T11:43:54.201Z,1.15
2018-10-07T11:46:52.214Z,1.52
2018-10-07T11:49:45.504Z,2.33
2018-10-07T11:52:55.970Z,2.72
2018-10-07T11:55:31.402Z,1.80
2018-10-07T11:58:06.970Z,3.60
2018-10-07T12:00:42.672Z,1.75
2018-10-07T12:03:18.218Z,1.70
2018-10-07T12:05:53.804Z,1.60
2018-10-07T12:08:29.260Z,1.70
2018-10-07T12:11:04.864Z,2.00
2018-10-07T12:13:40.407Z,1.50
2018-10-07T12:16:16.221Z,2.33
2018-10-07T12:18:51.614Z,1.60
2018-10-07T12:21:27.299Z,2.33
2018-10-07T12:24:02.878Z,2.75
2018-10-07T12:26:38.529Z,3.30
2018-10-07T12:29:14.067Z,1.50
2018-10-07T12:31:49.459Z,1.52
2018-10-07T12:34:24.878Z,1.65
2018-10-07T12:37:00.800Z,1.75
2018-10-07T12:39:36.579Z,1.80
2018-10-07T12:42:12.108Z,1.57
2018-10-07T12:44:47.505Z,1.70
2018-10-07T12:47:23.214Z,1.15
2018-10-07T12:49:58.552Z,1.85
2018-10-07T12:52:35.179Z,1.30
2018-10-07T12:55:10.613Z,1.80
2018-10-07T12:57:46.271Z,1.72
2018-10-07T13:00:21.793Z,1.95
2018-10-07T13:02:57.192Z,3.35
2018-10-07T13:05:32.650Z,2.10
2018-10-07T13:08:08.095Z,1.70
2018-10-07T13:10:43.581Z,3.08
2018-10-07T16:50:04.651Z,3.80
2018-10-07T17:21:04.369Z,7.35
2018-10-07T17:23:39.821Z,7.87
2018-10-07T17:26:15.361Z,5.80
2018-10-07T17:28:51.042Z,5.45
2018-10-07T17:31:26.581Z,8.73
2018-10-07T17:34:02.374Z,6.33
2018-10-07T17:36:37.980Z,5.05
2018-10-07T17:39:13.903Z,14.83
2018-10-07T17:41:49.297Z,13.25
2018-10-07T17:44:24.993Z,4.83
2018-10-07T17:47:00.237Z,12.60
2018-10-07T17:54:45.194Z,8.20
2018-10-07T17:57:20.738Z,7.50
2018-10-07T17:59:56.214Z,8.85
2018-10-07T18:02:31.497Z,6.95
2018-10-07T18:05:08.024Z,11.38
2018-10-07T18:07:43.501Z,9.70
2018-10-07T18:10:19.254Z,11.57
2018-10-07T18:12:54.735Z,6.33
2018-10-07T18:15:30.354Z,8.03
2018-10-07T18:18:06.299Z,14.30
2018-10-07T18:20:41.928Z,20.60
2018-10-07T18:23:17.394Z,20.68
2018-10-07T18:25:52.908Z,27.10
2018-10-07T18:28:28.393Z,19.12
2018-10-07T18:31:04.044Z,19.98
2018-10-07T18:33:39.513Z,13.30
2018-10-07T18:36:15.060Z,22.77
2018-10-07T18:38:50.702Z,22.52
2018-10-07T18:41:26.397Z,24.10
2018-10-07T18:44:02.003Z,23.32
2018-10-07T18:46:37.421Z,27.42
2018-10-07T18:49:13.150Z,15.83
2018-10-07T18:51:48.641Z,21.07
2018-10-07T18:54:24.090Z,16.93
2018-10-07T18:56:59.651Z,15.08
2018-10-07T18:59:35.061Z,9.78
2018-10-07T19:02:10.809Z,13.95
2018-10-07T19:04:46.256Z,16.20
2018-10-07T19:07:21.792Z,31.17
2018-10-07T19:09:57.293Z,33.90
2018-10-07T19:12:32.689Z,29.72
2018-10-07T19:15:08.217Z,12.93
2018-10-07T19:17:43.972Z,29.12
2018-10-07T19:20:19.320Z,32.93
2018-10-07T19:22:54.786Z,16.95
2018-10-07T19:25:30.162Z,28.73
2018-10-07T19:28:06.381Z,11.65
2018-10-07T19:30:41.841Z,14.28
2018-10-07T19:33:17.523Z,13.13
2018-10-07T19:35:53.013Z,12.15
2018-10-07T19:38:28.445Z,10.85
2018-10-07T19:41:03.749Z,12.55
2018-10-07T19:43:39.320Z,37.03
2018-10-07T19:46:14.789Z,11.18
2018-10-07T19:48:50.237Z,20.57
2018-10-07T19:51:25.979Z,28.73
2018-10-07T19:54:01.684Z,22.90
2018-10-07T19:56:36.929Z,30.50
2018-10-07T19:59:12.549Z,19.45
2018-10-07T20:01:47.962Z,33.42
2018-10-07T20:04:23.585Z,35.88
2018-10-07T20:06:59.035Z,40.95
2018-10-07T20:09:34.487Z,52.50
2018-10-07T20:12:09.837Z,33.20
2018-10-07T20:14:45.208Z,23.05
2018-10-07T20:17:20.546Z,34.55
2018-10-07T20:19:56.165Z,32.35
2018-10-07T20:22:31.641Z,29.57
2018-10-07T20:25:07.113Z,38.35
2018-10-07T20:27:42.555Z,36.90
2018-10-07T20:30:18.050Z,28.42
2018-10-07T20:32:53.433Z,26.05
2018-10-07T20:35:29.035Z,44.00
2018-10-07T20:38:04.349Z,51.08
2018-10-07T20:40:40.018Z,42.30
2018-10-07T20:43:15.248Z,22.15
2018-10-07T20:45:50.755Z,48.35
2018-10-07T20:48:26.210Z,46.63
2018-10-07T20:51:01.843Z,40.70
2018-10-07T20:53:37.372Z,41.80
2018-10-07T20:56:12.717Z,11.03
2018-10-07T20:58:47.935Z,32.98
2018-10-07T21:01:24.419Z,42.43
2018-10-07T21:03:59.670Z,38.13
2018-10-07T21:06:35.509Z,34.08
2018-10-07T21:09:12.273Z,41.98
2018-10-07T21:11:47.799Z,32.93
2018-10-07T21:14:23.285Z,52.85
2018-10-07T21:16:58.996Z,42.50
2018-10-07T21:19:34.510Z,47.17
2018-10-07T21:22:10.001Z,37.38
2018-10-07T21:24:45.389Z,44.60
2018-10-07T21:27:21.149Z,47.35
2018-10-07T21:29:56.486Z,16.80
2018-10-07T21:32:32.244Z,39.05
2018-10-07T21:35:07.679Z,18.87
2018-10-07T21:37:43.250Z,25.80
2018-10-07T21:40:18.682Z,33.00
2018-10-07T21:42:54.066Z,42.62
2018-10-07T21:45:29.601Z,47.53
2018-10-07T21:48:05.266Z,38.98
2018-10-07T21:50:40.949Z,21.73
2018-10-07T21:53:16.696Z,40.10
2018-10-07T21:55:52.040Z,32.08
2018-10-07T21:58:27.722Z,30.68
2018-10-07T22:01:03.212Z,15.28
2018-10-07T22:03:38.889Z,32.50
2018-10-07T22:06:14.362Z,41.65
2018-10-07T22:08:49.885Z,35.38
2018-10-07T22:11:25.438Z,32.90
2018-10-07T22:14:01.181Z,25.40
2018-10-07T22:16:36.472Z,23.07
2018-10-07T22:19:12.517Z,27.13
2018-10-07T22:21:47.850Z,32.08
2018-10-07T22:24:23.219Z,33.30
2018-10-07T22:26:58.756Z,28.15
2018-10-07T22:29:34.192Z,31.62
2018-10-07T22:32:09.807Z,25.68
2018-10-07T22:34:45.464Z,18.65
2018-10-07T22:37:21.182Z,31.00
2018-10-07T22:39:56.557Z,12.85
2018-10-07T22:42:31.990Z,13.75
2018-10-07T22:45:07.632Z,34.75
2018-10-07T22:47:43.128Z,12.55
2018-10-07T22:50:18.663Z,29.32
2018-10-07T22:52:54.150Z,28.00
2018-10-07T22:55:29.707Z,27.67
2018-10-07T22:58:05.561Z,14.25
2018-10-07T23:00:41.143Z,17.62
2018-10-07T23:03:16.389Z,20.92
2018-10-07T23:05:51.821Z,21.37
2018-10-07T23:08:26.993Z,23.98
2018-10-07T23:11:02.309Z,25.68
2018-10-07T23:13:38.142Z,17.90
2018-10-07T23:16:13.492Z,14.55
2018-10-07T23:18:48.921Z,19.80
2018-10-07T23:21:24.740Z,23.87
2018-10-07T23:24:00.083Z,21.10
2018-10-07T23:26:35.545Z,13.48
2018-10-07T23:29:10.788Z,13.32
2018-10-07T23:31:46.478Z,16.77
2018-10-07T23:34:21.692Z,11.43
2018-10-07T23:36:57.345Z,17.85
2018-10-07T23:39:32.961Z,16.45
2018-10-07T23:42:08.673Z,19.07
2018-10-07T23:44:44.242Z,17.82
2018-10-07T23:47:19.780Z,19.20
2018-10-07T23:49:55.116Z,14.75
2018-10-07T23:52:30.675Z,14.40
2018-10-07T23:55:06.000Z,11.60
2018-10-07T23:57:41.436Z,11.43
